createdAt,value
2022-09-13T00:01:09.976Z,3.33
2022-09-13T00:03:37.501Z,2.77
2022-09-13T00:06:13.153Z,2.73
2022-09-13T00:08:40.754Z,2.80
2022-09-13T00:11:08.402Z,2.80
2022-09-13T00:13:35.146Z,2.77
2022-09-13T00:16:03.907Z,2.60
2022-09-13T00:18:30.819Z,2.50
2022-09-13T00:21:05.922Z,2.40
2022-09-13T00:23:32.616Z,2.37
2022-09-13T00:26:08.142Z,2.70
2022-09-13T00:28:35.097Z,2.80
2022-09-13T00:31:03.501Z,2.63
2022-09-13T00:33:31.103Z,2.60
2022-09-13T00:35:58.269Z,2.67
2022-09-13T00:38:25.062Z,2.50
2022-09-13T00:40:52.028Z,2.60
2022-09-13T00:43:21.390Z,2.63
2022-09-13T00:45:49.025Z,2.43
2022-09-13T00:48:21.704Z,2.70
2022-09-13T00:50:54.525Z,2.47
2022-09-13T00:53:30.199Z,2.67
2022-09-13T00:56:02.831Z,2.60
2022-09-13T00:58:44.248Z,2.90
2022-09-13T01:01:14.545Z,2.80
2022-09-13T01:03:43.645Z,2.53
2022-09-13T01:06:14.782Z,2.23
2022-09-13T01:08:43.777Z,2.50
2022-09-13T01:11:16.925Z,2.60
2022-09-13T01:13:44.473Z,2.90
2022-09-13T01:16:11.609Z,2.83
2022-09-13T01:18:38.513Z,3.47
2022-09-13T01:21:13.931Z,3.10
2022-09-13T01:23:58.776Z,3.27
2022-09-13T01:26:46.494Z,3.00
2022-09-13T01:29:54.853Z,3.13
2022-09-13T01:32:30.519Z,2.93
2022-09-13T01:35:23.062Z,3.03
2022-09-13T01:38:00.182Z,3.03
2022-09-13T01:40:45.219Z,2.67
2022-09-13T01:43:38.764Z,3.10
2022-09-13T01:46:34.760Z,2.40
2022-09-13T01:49:11.014Z,3.07
2022-09-13T01:51:56.286Z,3.00
2022-09-13T01:54:26.072Z,2.97
2022-09-13T01:57:08.301Z,3.43
2022-09-13T01:59:49.981Z,3.17
2022-09-13T02:02:28.227Z,3.57
2022-09-13T02:05:02.406Z,3.43
2022-09-13T02:07:40.838Z,3.13
2022-09-13T02:10:13.124Z,3.37
2022-09-13T02:12:43.587Z,3.37
2022-09-13T02:15:29.866Z,3.10
2022-09-13T02:18:22.098Z,2.90
2022-09-13T02:20:51.817Z,3.27
2022-09-13T02:23:48.924Z,2.80
2022-09-13T02:26:16.445Z,3.77
2022-09-13T02:28:48.642Z,3.20
2022-09-13T02:31:18.977Z,3.43
2022-09-13T02:33:56.833Z,3.37
2022-09-13T02:36:29.738Z,3.23
2022-09-13T02:39:02.558Z,2.93
2022-09-13T02:42:12.353Z,3.10
2022-09-13T02:44:46.081Z,2.77
2022-09-13T02:47:32.819Z,2.90
2022-09-13T02:50:19.813Z,2.97
2022-09-13T02:53:37.866Z,2.60
2022-09-13T02:56:21.935Z,3.10
2022-09-13T02:58:57.714Z,3.17
2022-09-13T03:01:25.095Z,3.23
2022-09-13T03:03:55.042Z,3.20
2022-09-13T03:06:26.646Z,3.27
2022-09-13T03:09:00.924Z,3.37
2022-09-13T03:11:52.854Z,3.83
2022-09-13T03:14:38.050Z,4.30
2022-09-13T03:17:14.168Z,3.70
2022-09-13T03:19:52.617Z,3.53
2022-09-13T03:22:47.305Z,3.67
2022-09-13T03:25:35.617Z,3.70
2022-09-13T03:28:15.433Z,3.77
2022-09-13T03:30:50.838Z,3.10
2022-09-13T03:33:17.417Z,3.33
2022-09-13T03:36:01.679Z,3.47
2022-09-13T03:38:43.785Z,2.80
2022-09-13T03:41:22.075Z,3.50
2022-09-13T03:43:59.601Z,3.77
2022-09-13T03:46:31.489Z,3.27
2022-09-13T03:49:20.176Z,3.67
2022-09-13T03:51:49.738Z,3.67
2022-09-13T03:54:24.222Z,3.60
2022-09-13T03:57:08.634Z,3.60
2022-09-13T03:59:38.662Z,3.23
2022-09-13T04:02:07.935Z,3.73
2022-09-13T04:04:35.347Z,3.37
2022-09-13T04:07:03.810Z,3.30
2022-09-13T04:09:31.539Z,3.63
2022-09-13T04:11:58.571Z,3.73
2022-09-13T04:14:26.495Z,4.13
2022-09-13T04:16:55.084Z,3.93
2022-09-13T04:19:22.260Z,3.90
2022-09-13T04:21:50.529Z,4.03
2022-09-13T04:24:18.278Z,4.13
2022-09-13T04:26:50.654Z,3.77
2022-09-13T04:29:18.361Z,3.20
2022-09-13T04:31:46.127Z,4.27
2022-09-13T04:34:13.814Z,3.83
2022-09-13T04:36:40.757Z,3.73
2022-09-13T04:39:07.441Z,3.27
2022-09-13T04:41:34.514Z,4.20
2022-09-13T04:44:02.328Z,3.57
2022-09-13T04:46:29.654Z,3.57
2022-09-13T04:48:56.484Z,3.73
2022-09-13T04:51:23.636Z,3.50
2022-09-13T04:53:55.188Z,3.70
2022-09-13T04:56:23.359Z,3.83
2022-09-13T04:58:54.690Z,3.77
2022-09-13T05:01:27.051Z,4.00
2022-09-13T05:03:54.897Z,3.97
2022-09-13T05:06:22.828Z,4.07
2022-09-13T05:08:52.948Z,3.90
2022-09-13T05:11:19.654Z,4.20
2022-09-13T05:13:53.018Z,4.13
2022-09-13T05:16:20.266Z,3.70
2022-09-13T05:18:47.426Z,4.20
2022-09-13T05:21:14.456Z,3.93
2022-09-13T05:23:41.233Z,3.63
2022-09-13T05:26:08.131Z,3.80
2022-09-13T05:28:36.982Z,4.00
2022-09-13T05:31:07.090Z,4.20
2022-09-13T05:33:36.234Z,4.07
2022-09-13T05:36:04.148Z,4.00
2022-09-13T05:38:30.858Z,4.63
2022-09-13T05:40:59.790Z,3.80
2022-09-13T05:43:28.285Z,4.00
2022-09-13T05:46:14.371Z,4.47
2022-09-13T05:48:41.923Z,3.50
2022-09-13T05:51:14.018Z,4.10
2022-09-13T05:53:42.336Z,4.10
2022-09-13T05:56:15.817Z,3.80
2022-09-13T05:58:45.256Z,3.80
2022-09-13T06:01:13.277Z,4.03
2022-09-13T06:03:40.172Z,4.50
2022-09-13T06:06:08.412Z,4.30
2022-09-13T06:08:35.939Z,3.93
2022-09-13T06:11:05.470Z,4.60
2022-09-13T06:13:32.984Z,3.70
2022-09-13T06:16:01.311Z,4.30
2022-09-13T06:18:28.427Z,4.10
2022-09-13T06:21:02.898Z,4.50
2022-09-13T06:23:30.853Z,4.00
2022-09-13T06:26:02.722Z,5.10
2022-09-13T06:28:30.842Z,4.27
2022-09-13T06:31:04.729Z,4.70
2022-09-13T06:33:32.448Z,4.00
2022-09-13T06:36:07.157Z,4.00
2022-09-13T06:38:33.860Z,4.37
2022-09-13T06:41:06.282Z,5.10
2022-09-13T06:43:33.785Z,6.20
2022-09-13T06:46:02.378Z,4.17
2022-09-13T06:48:36.924Z,4.57
2022-09-13T06:51:06.121Z,3.93
2022-09-13T06:53:34.721Z,4.20
2022-09-13T06:56:06.726Z,4.00
2022-09-13T06:58:34.935Z,4.40
2022-09-13T07:01:12.613Z,4.13
2022-09-13T07:03:41.778Z,4.60
2022-09-13T07:06:24.071Z,4.50
2022-09-13T07:08:52.378Z,4.13
2022-09-13T07:11:21.230Z,4.27
2022-09-13T07:13:49.706Z,4.10
2022-09-13T07:16:17.190Z,4.40
2022-09-13T07:18:43.870Z,3.93
2022-09-13T07:21:11.832Z,4.80
2022-09-13T07:23:40.065Z,4.43
2022-09-13T07:26:07.602Z,4.80
2022-09-13T07:28:37.401Z,4.77
2022-09-13T07:31:07.058Z,4.27
2022-09-13T07:33:33.816Z,3.90
2022-09-13T07:36:06.164Z,4.20
2022-09-13T07:38:37.606Z,4.07
2022-09-13T07:41:06.666Z,4.10
2022-09-13T07:43:36.686Z,4.20
2022-09-13T07:46:05.987Z,4.10
2022-09-13T07:48:34.972Z,4.50
2022-09-13T07:51:03.056Z,4.27
2022-09-13T07:53:30.800Z,4.40
2022-09-13T07:56:11.601Z,4.40
2022-09-13T07:58:39.837Z,3.77
2022-09-13T08:01:14.417Z,4.10
2022-09-13T08:03:41.658Z,4.27
2022-09-13T08:06:08.979Z,4.23
2022-09-13T08:08:37.013Z,3.93
2022-09-13T08:11:05.980Z,3.90
2022-09-13T08:13:33.020Z,4.30
2022-09-13T08:16:04.740Z,4.33
2022-09-13T08:18:32.279Z,3.70
2022-09-13T08:21:00.438Z,4.17
2022-09-13T08:23:27.361Z,4.60
2022-09-13T08:25:54.315Z,4.20
2022-09-13T08:28:26.845Z,4.50
2022-09-13T08:30:54.469Z,4.33
2022-09-13T08:33:21.509Z,3.90
2022-09-13T08:35:52.577Z,3.83
2022-09-13T08:38:19.948Z,3.90
2022-09-13T08:41:13.257Z,4.47
2022-09-13T08:44:04.527Z,3.53
2022-09-13T08:46:40.116Z,3.43
2022-09-13T08:49:26.561Z,3.78
2022-09-13T08:51:58.479Z,3.63
2022-09-13T08:54:25.353Z,3.70
2022-09-13T08:57:10.390Z,3.47
2022-09-13T08:59:56.062Z,3.45
2022-09-13T09:02:46.084Z,3.08
2022-09-13T09:05:23.398Z,3.25
2022-09-13T09:08:13.199Z,2.95
2022-09-13T09:10:47.267Z,3.00
2022-09-13T09:13:25.873Z,2.92
2022-09-13T09:15:58.657Z,2.63
2022-09-13T09:18:38.490Z,2.95
2022-09-13T09:21:13.164Z,2.42
2022-09-13T09:23:48.764Z,3.08
2022-09-13T09:26:34.346Z,2.60
2022-09-13T09:29:09.583Z,2.50
2022-09-13T09:31:57.381Z,2.33
2022-09-13T09:34:27.087Z,2.30
2022-09-13T09:37:24.234Z,2.25
2022-09-13T09:39:53.436Z,2.15
2022-09-13T09:42:25.325Z,2.08
2022-09-13T09:45:00.658Z,2.10
2022-09-13T09:47:33.015Z,2.10
2022-09-13T09:50:14.435Z,1.92
2022-09-13T09:52:59.536Z,1.90
2022-09-13T09:55:32.291Z,1.80
2022-09-13T09:58:06.172Z,1.70
2022-09-13T10:00:36.137Z,1.60
2022-09-13T10:03:17.007Z,1.02
2022-09-13T10:05:43.726Z,1.10
2022-09-13T10:08:31.554Z,1.20
2022-09-13T10:11:00.306Z,1.23
2022-09-13T10:13:31.497Z,1.30
2022-09-13T10:16:02.741Z,1.10
2022-09-13T10:18:47.126Z,1.00
2022-09-13T10:21:23.673Z,1.27
2022-09-13T10:23:50.847Z,1.15
2022-09-13T10:26:22.729Z,1.45
2022-09-13T10:29:08.602Z,1.42
2022-09-13T10:31:40.474Z,1.30
2022-09-13T10:34:20.958Z,1.15
2022-09-13T10:36:56.462Z,1.00
2022-09-13T10:39:24.750Z,0.90
2022-09-13T10:42:05.757Z,1.17
2022-09-13T10:44:46.458Z,0.90
2022-09-13T10:47:21.718Z,1.10
2022-09-13T10:49:54.110Z,0.90
2022-09-13T10:52:43.678Z,1.00
2022-09-13T10:55:19.048Z,1.00
2022-09-13T10:57:48.020Z,1.10
2022-09-13T11:00:18.994Z,1.02
2022-09-13T11:02:55.893Z,1.10
2022-09-13T11:05:41.625Z,0.90
2022-09-13T11:08:17.560Z,0.60
2022-09-13T11:11:20.826Z,0.73
2022-09-13T11:14:25.216Z,0.75
2022-09-13T11:17:16.543Z,1.02
2022-09-13T11:20:01.489Z,0.65
2022-09-13T11:22:50.689Z,0.75
2022-09-13T11:25:37.323Z,0.98
2022-09-13T11:28:11.553Z,0.80
2022-09-13T11:30:47.812Z,0.85
2022-09-13T11:33:22.811Z,1.00
2022-09-13T11:36:18.908Z,0.90
2022-09-13T11:38:54.476Z,0.90
2022-09-13T11:41:34.500Z,0.90
2022-09-13T11:44:04.396Z,0.98
2022-09-13T11:47:04.523Z,0.93
2022-09-13T11:49:52.114Z,0.90
2022-09-13T11:52:40.367Z,1.00
2022-09-13T11:55:25.798Z,0.88
2022-09-13T11:57:55.450Z,0.90
2022-09-13T12:00:30.954Z,1.00
2022-09-13T12:03:34.121Z,1.20
2022-09-13T12:06:15.276Z,0.95
2022-09-13T12:08:49.287Z,0.85
2022-09-13T12:11:19.537Z,0.90
2022-09-13T12:14:00.937Z,1.30
2022-09-13T12:16:36.377Z,0.68
2022-09-13T12:19:27.472Z,1.02
2022-09-13T12:21:57.525Z,1.02
2022-09-13T12:24:39.418Z,0.90
2022-09-13T12:27:34.390Z,1.10
2022-09-13T12:30:17.413Z,1.00
2022-09-13T12:32:46.130Z,0.95
2022-09-13T12:35:19.005Z,1.10
2022-09-13T12:38:30.812Z,0.90
2022-09-13T12:41:10.248Z,1.13
2022-09-13T12:44:02.296Z,0.90
2022-09-13T12:46:49.097Z,0.77
2022-09-13T12:49:20.831Z,0.77
2022-09-13T12:52:21.597Z,0.70
2022-09-13T12:55:35.530Z,0.65
2022-09-13T12:58:17.180Z,0.80
2022-09-13T13:01:16.802Z,0.60
2022-09-13T13:03:54.377Z,0.63
2022-09-13T13:06:29.359Z,0.68
2022-09-13T13:08:59.387Z,0.60
2022-09-13T13:11:29.402Z,0.70
2022-09-13T13:14:09.403Z,0.70
2022-09-13T13:16:40.578Z,0.70
2022-09-13T13:19:34.132Z,0.77
2022-09-13T13:22:38.026Z,0.80
2022-09-13T13:25:26.614Z,0.65
2022-09-13T13:27:54.995Z,0.73
2022-09-13T13:30:42.295Z,0.70
2022-09-13T13:33:22.810Z,0.80
2022-09-13T13:35:50.213Z,0.65
2022-09-13T13:38:22.735Z,0.77
2022-09-13T13:40:52.521Z,0.88
2022-09-13T13:43:39.497Z,0.90
2022-09-13T13:46:12.326Z,0.70
2022-09-13T13:48:42.671Z,0.85
2022-09-13T13:51:24.797Z,0.50
2022-09-13T13:54:01.947Z,0.60
2022-09-13T13:56:31.636Z,0.70
2022-09-13T13:59:14.498Z,0.60
2022-09-13T14:01:48.412Z,0.60
2022-09-13T14:04:43.028Z,0.70
2022-09-13T14:07:47.954Z,0.60
2022-09-13T14:10:24.942Z,0.77
2022-09-13T14:13:03.035Z,0.70
2022-09-13T14:15:53.400Z,0.70
2022-09-13T14:18:42.470Z,0.80
2022-09-13T14:21:29.798Z,0.60
2022-09-13T14:24:09.636Z,0.70
2022-09-13T14:26:36.959Z,0.60
2022-09-13T14:29:07.950Z,0.70
2022-09-13T14:31:35.590Z,0.65
2022-09-13T14:34:02.681Z,0.60
2022-09-13T14:36:29.462Z,0.70
2022-09-13T14:39:00.273Z,0.70
2022-09-13T14:41:33.425Z,0.70
2022-09-13T14:44:35.645Z,0.70
2022-09-13T14:47:25.777Z,0.95
2022-09-13T14:50:15.207Z,0.95
2022-09-13T14:53:06.796Z,0.90
2022-09-13T14:55:40.347Z,0.90
2022-09-13T14:58:17.133Z,0.95
2022-09-13T15:00:51.158Z,0.90
2022-09-13T15:03:19.186Z,1.00
2022-09-13T15:05:58.910Z,0.95
2022-09-13T15:08:34.612Z,1.13
2022-09-13T15:11:03.761Z,0.88
2022-09-13T15:13:30.589Z,0.80
2022-09-13T15:15:57.822Z,1.10
2022-09-13T15:18:36.521Z,0.90
2022-09-13T15:21:17.379Z,0.90
2022-09-13T15:23:50.814Z,0.85
2022-09-13T15:26:28.229Z,0.80
2022-09-13T15:29:05.518Z,0.95
2022-09-13T15:31:34.816Z,0.80
2022-09-13T15:34:17.704Z,1.10
2022-09-13T15:37:13.729Z,1.33
2022-09-13T15:39:48.435Z,0.88
2022-09-13T15:42:16.969Z,1.20
2022-09-13T15:44:43.853Z,1.10
2022-09-13T15:47:16.532Z,0.90
2022-09-13T15:49:50.309Z,1.10
2022-09-13T15:52:18.885Z,1.00
2022-09-13T15:54:49.194Z,1.02
2022-09-13T15:57:27.497Z,1.23
2022-09-13T15:59:56.192Z,1.30
2022-09-13T16:02:26.138Z,1.10
2022-09-13T16:04:53.959Z,1.08
2022-09-13T16:07:21.510Z,1.10
2022-09-13T16:09:48.418Z,1.10
2022-09-13T16:12:15.478Z,1.13
2022-09-13T16:14:42.919Z,1.00
2022-09-13T16:17:26.910Z,1.30
2022-09-13T16:19:54.359Z,1.10
2022-09-13T16:22:21.699Z,0.93
2022-09-13T16:24:48.498Z,1.02
2022-09-13T16:27:17.366Z,1.00
2022-09-13T16:29:44.484Z,1.10
2022-09-13T16:32:12.211Z,1.05
2022-09-13T16:34:39.358Z,1.05
2022-09-13T16:37:06.245Z,1.17
2022-09-13T16:39:33.041Z,0.90
2022-09-13T16:41:59.648Z,0.90
2022-09-13T16:44:26.478Z,1.10
2022-09-13T16:46:53.181Z,0.82
2022-09-13T16:49:20.054Z,1.00
2022-09-13T16:51:46.771Z,1.00
2022-09-13T16:54:13.781Z,1.15
2022-09-13T16:56:40.383Z,1.00
2022-09-13T16:59:07.020Z,1.35
2022-09-13T17:01:33.905Z,1.02
2022-09-13T17:04:00.968Z,1.00
2022-09-13T17:06:27.734Z,1.00
2022-09-13T17:08:58.098Z,0.90
2022-09-13T17:11:26.984Z,0.93
2022-09-13T17:13:54.290Z,1.10
2022-09-13T17:16:31.626Z,0.87
2022-09-13T17:19:00.446Z,0.90
2022-09-13T17:21:28.118Z,0.98
2022-09-13T17:23:55.013Z,0.90
2022-09-13T17:26:22.776Z,0.90
2022-09-13T17:28:49.866Z,1.20
2022-09-13T17:31:16.848Z,0.90
2022-09-13T17:33:43.566Z,0.80
2022-09-13T17:36:13.519Z,0.80
2022-09-13T17:38:41.469Z,1.00
2022-09-13T17:41:11.359Z,1.00
2022-09-13T17:43:39.475Z,1.00
2022-09-13T17:46:08.007Z,1.00
2022-09-13T17:48:35.098Z,0.97
2022-09-13T17:51:13.519Z,1.13
2022-09-13T17:53:42.365Z,1.10
2022-09-13T17:56:09.263Z,0.93
2022-09-13T17:58:36.676Z,1.10
2022-09-13T18:01:07.473Z,1.10
2022-09-13T18:03:36.261Z,0.93
2022-09-13T18:06:04.094Z,0.90
2022-09-13T18:08:33.325Z,0.90
2022-09-13T18:11:13.556Z,1.10
2022-09-13T18:13:41.365Z,1.10
2022-09-13T18:16:10.909Z,0.90
2022-09-13T18:18:41.839Z,1.10
2022-09-13T18:21:10.775Z,0.77
2022-09-13T18:23:37.734Z,1.20
2022-09-13T18:26:24.418Z,1.00
2022-09-13T18:29:02.819Z,1.17
2022-09-13T18:31:31.212Z,1.00
2022-09-13T18:34:00.770Z,1.10
2022-09-13T18:36:29.184Z,1.13
2022-09-13T18:38:56.999Z,1.13
2022-09-13T18:41:27.027Z,1.30
2022-09-13T18:43:55.970Z,1.17
2022-09-13T18:46:27.002Z,1.20
2022-09-13T18:48:55.295Z,0.90
2022-09-13T18:51:24.256Z,1.00
2022-09-13T18:53:51.677Z,1.10
2022-09-13T18:56:20.552Z,1.20
2022-09-13T18:58:48.276Z,1.00
2022-09-13T19:01:17.505Z,0.80
2022-09-13T19:03:50.146Z,0.90
2022-09-13T19:06:20.873Z,1.00
2022-09-13T19:08:49.286Z,0.90
2022-09-13T19:11:42.232Z,0.97
2022-09-13T19:14:05.496Z,0.97
2022-09-13T19:16:32.811Z,0.90
2022-09-13T19:19:00.084Z,1.00
2022-09-13T19:21:31.929Z,1.13
2022-09-13T19:24:07.958Z,1.00
2022-09-13T19:26:39.042Z,0.97
2022-09-13T19:29:08.841Z,0.93
2022-09-13T19:31:39.148Z,0.80
2022-09-13T19:34:06.585Z,0.83
2022-09-13T19:36:35.653Z,0.93
2022-09-13T19:39:04.093Z,0.80
2022-09-13T19:41:31.139Z,1.00
2022-09-13T19:44:02.153Z,1.00
2022-09-13T19:46:31.878Z,1.10
2022-09-13T19:49:00.206Z,1.20
2022-09-13T19:51:29.320Z,1.20
2022-09-13T19:53:57.995Z,1.03
2022-09-13T19:56:34.484Z,1.00
2022-09-13T19:59:02.196Z,1.00
2022-09-13T20:01:35.099Z,1.20
2022-09-13T20:04:07.635Z,1.20
2022-09-13T20:06:40.103Z,1.00
2022-09-13T20:09:09.186Z,1.00
2022-09-13T20:11:41.452Z,1.00
2022-09-13T20:14:09.708Z,1.00
2022-09-13T20:16:39.316Z,1.20
2022-09-13T20:19:29.600Z,1.23
2022-09-13T20:21:55.676Z,1.30
2022-09-13T20:24:22.530Z,1.60
2022-09-13T20:26:52.173Z,1.50
2022-09-13T20:29:19.344Z,1.20
2022-09-13T20:31:46.187Z,1.20
2022-09-13T20:34:15.037Z,1.30
2022-09-13T20:36:44.371Z,1.50
2022-09-13T20:39:11.660Z,1.37
2022-09-13T20:41:38.797Z,1.50
2022-09-13T20:44:05.426Z,1.40
2022-09-13T20:46:32.331Z,1.13
2022-09-13T20:48:59.312Z,1.37
2022-09-13T20:51:27.599Z,1.20
2022-09-13T20:54:00.423Z,1.20
2022-09-13T20:56:29.093Z,1.50
2022-09-13T20:58:59.666Z,1.53
2022-09-13T21:01:28.095Z,1.50
2022-09-13T21:03:55.757Z,1.37
2022-09-13T21:06:24.424Z,1.60
2022-09-13T21:08:52.282Z,1.80
2022-09-13T21:11:24.709Z,1.70
2022-09-13T21:13:54.042Z,1.47
2022-09-13T21:16:23.219Z,1.87
2022-09-13T21:18:51.127Z,1.40
2022-09-13T21:21:20.620Z,1.70
2022-09-13T21:23:47.996Z,1.57
2022-09-13T21:26:17.317Z,1.40
2022-09-13T21:28:44.602Z,1.40
2022-09-13T21:31:16.093Z,1.60
2022-09-13T21:33:47.274Z,1.33
2022-09-13T21:36:14.218Z,1.50
2022-09-13T21:38:41.262Z,1.40
2022-09-13T21:41:12.825Z,1.73
2022-09-13T21:43:40.091Z,1.60
2022-09-13T21:46:08.090Z,1.73
2022-09-13T21:48:36.208Z,1.60
2022-09-13T21:51:05.509Z,1.57
2022-09-13T21:53:35.420Z,1.70
2022-09-13T21:56:14.154Z,1.67
2022-09-13T21:58:41.257Z,1.40
2022-09-13T22:01:14.636Z,1.53
2022-09-13T22:03:43.546Z,1.57
2022-09-13T22:06:11.777Z,1.73
2022-09-13T22:08:44.546Z,1.70
2022-09-13T22:11:17.261Z,1.53
2022-09-13T22:13:45.747Z,1.63
2022-09-13T22:16:14.873Z,2.30
2022-09-13T22:18:42.269Z,1.83
2022-09-13T22:21:11.395Z,1.60
2022-09-13T22:23:38.663Z,1.80
2022-09-13T22:26:17.679Z,1.90
2022-09-13T22:28:44.563Z,1.70
2022-09-13T22:31:30.063Z,1.83
2022-09-13T22:33:59.109Z,1.70
2022-09-13T22:36:26.850Z,1.73
2022-09-13T22:38:55.156Z,1.30
2022-09-13T22:41:28.144Z,1.40
2022-09-13T22:43:56.112Z,1.47
2022-09-13T22:46:46.478Z,1.53
2022-09-13T22:49:18.577Z,1.47
2022-09-13T22:51:46.509Z,1.70
2022-09-13T22:54:14.584Z,1.70
2022-09-13T22:56:41.750Z,1.60
2022-09-13T22:59:15.624Z,1.70
2022-09-13T23:01:42.975Z,1.70
2022-09-13T23:04:10.700Z,1.50
2022-09-13T23:06:37.726Z,1.90
2022-09-13T23:09:07.054Z,1.77
2022-09-13T23:11:38.990Z,1.73
2022-09-13T23:14:09.807Z,1.87
2022-09-13T23:16:40.203Z,2.10
2022-09-13T23:19:07.186Z,2.60
2022-09-13T23:21:36.425Z,2.50
2022-09-13T23:24:04.838Z,2.33
2022-09-13T23:26:31.901Z,2.03
2022-09-13T23:29:00.843Z,2.33
2022-09-13T23:31:30.769Z,2.87
2022-09-13T23:34:01.645Z,2.73
2022-09-13T23:36:31.417Z,2.30
2022-09-13T23:38:59.334Z,1.80
2022-09-13T23:41:26.451Z,2.10
2022-09-13T23:43:53.798Z,2.03
2022-09-13T23:46:21.647Z,2.00
2022-09-13T23:48:48.816Z,2.20
2022-09-13T23:51:18.544Z,2.13
2022-09-13T23:53:46.054Z,2.20
2022-09-13T23:56:13.941Z,2.33
2022-09-13T23:58:40.864Z,2.33
